sensor_id;sensor_type;location;lat;lon;timestamp;temperature;humidity
4097;DHT22;2062;50.694;7.246;2023-11-25T00:01:23;3.60;69.30
4097;DHT22;2062;50.694;7.246;2023-11-25T00:03:50;3.50;69.30
4097;DHT22;2062;50.694;7.246;2023-11-25T00:06:17;3.50;69.30
4097;DHT22;2062;50.694;7.246;2023-11-25T00:08:45;3.50;69.30
4097;DHT22;2062;50.694;7.246;2023-11-25T00:11:12;3.40;69.10
4097;DHT22;2062;50.694;7.246;2023-11-25T00:13:41;3.40;69.20
4097;DHT22;2062;50.694;7.246;2023-11-25T00:16:08;3.40;69.20
4097;DHT22;2062;50.694;7.246;2023-11-25T00:18:35;3.40;69.10
4097;DHT22;2062;50.694;7.246;2023-11-25T00:21:02;3.30;69.20
4097;DHT22;2062;50.694;7.246;2023-11-25T00:23:29;3.30;69.20
4097;DHT22;2062;50.694;7.246;2023-11-25T00:25:56;3.20;69.20
4097;DHT22;2062;50.694;7.246;2023-11-25T00:28:23;3.20;69.30
4097;DHT22;2062;50.694;7.246;2023-11-25T00:30:51;3.20;69.40
4097;DHT22;2062;50.694;7.246;2023-11-25T00:33:17;3.20;69.40
4097;DHT22;2062;50.694;7.246;2023-11-25T00:35:44;3.20;69.50
4097;DHT22;2062;50.694;7.246;2023-11-25T00:38:11;3.10;69.60
4097;DHT22;2062;50.694;7.246;2023-11-25T00:40:38;3.10;69.60
4097;DHT22;2062;50.694;7.246;2023-11-25T00:43:05;3.10;69.70
4097;DHT22;2062;50.694;7.246;2023-11-25T00:45:32;3.10;69.80
4097;DHT22;2062;50.694;7.246;2023-11-25T00:48:00;3.10;69.80
4097;DHT22;2062;50.694;7.246;2023-11-25T00:50:27;3.00;69.80
4097;DHT22;2062;50.694;7.246;2023-11-25T00:52:54;3.00;69.80
4097;DHT22;2062;50.694;7.246;2023-11-25T00:55:21;3.00;70.00
4097;DHT22;2062;50.694;7.246;2023-11-25T00:57:47;2.90;70.00
4097;DHT22;2062;50.694;7.246;2023-11-25T01:00:15;3.00;70.30
4097;DHT22;2062;50.694;7.246;2023-11-25T01:02:42;3.00;70.40
4097;DHT22;2062;50.694;7.246;2023-11-25T01:05:11;3.00;70.50
4097;DHT22;2062;50.694;7.246;2023-11-25T01:07:37;3.00;70.60
4097;DHT22;2062;50.694;7.246;2023-11-25T01:10:05;3.00;70.60
4097;DHT22;2062;50.694;7.246;2023-11-25T01:12:32;3.00;70.70
4097;DHT22;2062;50.694;7.246;2023-11-25T01:15:01;3.00;70.90
4097;DHT22;2062;50.694;7.246;2023-11-25T01:17:28;3.10;71.00
4097;DHT22;2062;50.694;7.246;2023-11-25T01:19:55;3.10;70.90
4097;DHT22;2062;50.694;7.246;2023-11-25T01:22:23;3.10;70.80
4097;DHT22;2062;50.694;7.246;2023-11-25T01:24:51;3.10;70.90
4097;DHT22;2062;50.694;7.246;2023-11-25T01:27:18;3.10;71.00
4097;DHT22;2062;50.694;7.246;2023-11-25T01:29:44;3.10;70.90
4097;DHT22;2062;50.694;7.246;2023-11-25T01:32:11;3.10;71.00
4097;DHT22;2062;50.694;7.246;2023-11-25T01:34:38;3.10;70.90
4097;DHT22;2062;50.694;7.246;2023-11-25T01:37:05;3.10;70.90
4097;DHT22;2062;50.694;7.246;2023-11-25T01:39:34;3.10;71.00
4097;DHT22;2062;50.694;7.246;2023-11-25T01:42:00;3.10;71.10
4097;DHT22;2062;50.694;7.246;2023-11-25T01:44:29;3.20;71.20
4097;DHT22;2062;50.694;7.246;2023-11-25T01:46:55;3.20;71.10
4097;DHT22;2062;50.694;7.246;2023-11-25T01:49:22;3.20;71.10
4097;DHT22;2062;50.694;7.246;2023-11-25T01:51:52;3.20;71.20
4097;DHT22;2062;50.694;7.246;2023-11-25T01:54:20;3.20;71.10
4097;DHT22;2062;50.694;7.246;2023-11-25T01:56:53;3.20;71.30
4097;DHT22;2062;50.694;7.246;2023-11-25T01:59:23;3.20;71.40
4097;DHT22;2062;50.694;7.246;2023-11-25T02:01:52;3.20;71.30
4097;DHT22;2062;50.694;7.246;2023-11-25T02:04:19;3.20;71.40
4097;DHT22;2062;50.694;7.246;2023-11-25T02:06:48;3.20;71.40
4097;DHT22;2062;50.694;7.246;2023-11-25T02:09:15;3.20;71.40
4097;DHT22;2062;50.694;7.246;2023-11-25T02:11:58;3.20;71.40
4097;DHT22;2062;50.694;7.246;2023-11-25T02:14:25;3.20;71.40
4097;DHT22;2062;50.694;7.246;2023-11-25T02:16:52;3.20;71.50
4097;DHT22;2062;50.694;7.246;2023-11-25T02:19:20;3.20;71.50
4097;DHT22;2062;50.694;7.246;2023-11-25T02:21:50;3.20;71.50
4097;DHT22;2062;50.694;7.246;2023-11-25T02:24:19;3.30;71.70
4097;DHT22;2062;50.694;7.246;2023-11-25T02:26:45;3.30;71.70
4097;DHT22;2062;50.694;7.246;2023-11-25T02:29:13;3.30;71.60
4097;DHT22;2062;50.694;7.246;2023-11-25T02:31:40;3.20;71.60
4097;DHT22;2062;50.694;7.246;2023-11-25T02:34:08;3.30;71.70
4097;DHT22;2062;50.694;7.246;2023-11-25T02:36:35;3.30;71.70
4097;DHT22;2062;50.694;7.246;2023-11-25T02:39:03;3.40;71.60
4097;DHT22;2062;50.694;7.246;2023-11-25T02:41:31;3.30;71.50
4097;DHT22;2062;50.694;7.246;2023-11-25T02:43:58;3.30;71.50
4097;DHT22;2062;50.694;7.246;2023-11-25T02:46:25;3.30;71.30
4097;DHT22;2062;50.694;7.246;2023-11-25T02:48:53;3.20;71.30
4097;DHT22;2062;50.694;7.246;2023-11-25T02:51:20;3.20;71.10
4097;DHT22;2062;50.694;7.246;2023-11-25T02:53:49;3.20;71.10
4097;DHT22;2062;50.694;7.246;2023-11-25T02:56:16;3.20;71.10
4097;DHT22;2062;50.694;7.246;2023-11-25T02:58:44;3.20;71.10
4097;DHT22;2062;50.694;7.246;2023-11-25T03:01:11;3.20;71.10
4097;DHT22;2062;50.694;7.246;2023-11-25T03:03:39;3.10;71.10
4097;DHT22;2062;50.694;7.246;2023-11-25T03:06:11;3.10;71.00
4097;DHT22;2062;50.694;7.246;2023-11-25T03:08:38;3.10;71.00
4097;DHT22;2062;50.694;7.246;2023-11-25T03:11:05;3.10;71.00
4097;DHT22;2062;50.694;7.246;2023-11-25T03:13:38;3.10;71.00
4097;DHT22;2062;50.694;7.246;2023-11-25T03:16:07;3.10;71.00
4097;DHT22;2062;50.694;7.246;2023-11-25T03:18:35;3.00;70.90
4097;DHT22;2062;50.694;7.246;2023-11-25T03:21:02;3.00;70.90
4097;DHT22;2062;50.694;7.246;2023-11-25T03:23:29;3.00;70.80
4097;DHT22;2062;50.694;7.246;2023-11-25T03:25:56;3.00;71.00
4097;DHT22;2062;50.694;7.246;2023-11-25T03:28:23;3.00;71.10
4097;DHT22;2062;50.694;7.246;2023-11-25T03:30:50;2.90;71.00
4097;DHT22;2062;50.694;7.246;2023-11-25T03:33:19;2.90;71.10
4097;DHT22;2062;50.694;7.246;2023-11-25T03:35:45;2.90;71.10
4097;DHT22;2062;50.694;7.246;2023-11-25T03:38:12;2.90;71.10
4097;DHT22;2062;50.694;7.246;2023-11-25T03:40:39;2.90;71.10
4097;DHT22;2062;50.694;7.246;2023-11-25T03:43:06;2.80;71.10
4097;DHT22;2062;50.694;7.246;2023-11-25T03:45:34;2.80;71.10
4097;DHT22;2062;50.694;7.246;2023-11-25T03:48:01;2.80;71.10
4097;DHT22;2062;50.694;7.246;2023-11-25T03:50:29;2.80;71.10
4097;DHT22;2062;50.694;7.246;2023-11-25T03:52:56;2.80;71.30
4097;DHT22;2062;50.694;7.246;2023-11-25T03:55:23;2.80;71.20
4097;DHT22;2062;50.694;7.246;2023-11-25T03:57:50;2.80;71.20
4097;DHT22;2062;50.694;7.246;2023-11-25T04:00:17;2.70;71.30
4097;DHT22;2062;50.694;7.246;2023-11-25T04:02:45;2.80;71.30
4097;DHT22;2062;50.694;7.246;2023-11-25T04:05:13;2.70;71.30
4097;DHT22;2062;50.694;7.246;2023-11-25T04:07:41;2.70;71.30
4097;DHT22;2062;50.694;7.246;2023-11-25T04:10:10;2.70;71.20
4097;DHT22;2062;50.694;7.246;2023-11-25T04:12:40;2.70;71.30
4097;DHT22;2062;50.694;7.246;2023-11-25T04:15:08;2.70;71.50
4097;DHT22;2062;50.694;7.246;2023-11-25T04:17:35;2.70;71.40
4097;DHT22;2062;50.694;7.246;2023-11-25T04:20:02;2.60;71.30
4097;DHT22;2062;50.694;7.246;2023-11-25T04:22:39;2.70;71.50
4097;DHT22;2062;50.694;7.246;2023-11-25T04:25:08;2.60;71.30
4097;DHT22;2062;50.694;7.246;2023-11-25T04:27:35;2.60;71.40
4097;DHT22;2062;50.694;7.246;2023-11-25T04:30:02;2.60;71.40
4097;DHT22;2062;50.694;7.246;2023-11-25T04:32:30;2.60;71.40
4097;DHT22;2062;50.694;7.246;2023-11-25T04:34:57;2.60;71.40
4097;DHT22;2062;50.694;7.246;2023-11-25T04:37:24;2.60;71.60
4097;DHT22;2062;50.694;7.246;2023-11-25T04:39:51;2.60;71.50
4097;DHT22;2062;50.694;7.246;2023-11-25T04:42:19;2.60;72.20
4097;DHT22;2062;50.694;7.246;2023-11-25T04:44:46;2.60;71.40
4097;DHT22;2062;50.694;7.246;2023-11-25T04:47:13;2.60;71.60
4097;DHT22;2062;50.694;7.246;2023-11-25T04:49:40;2.60;71.60
4097;DHT22;2062;50.694;7.246;2023-11-25T04:52:07;2.60;71.60
4097;DHT22;2062;50.694;7.246;2023-11-25T04:54:34;2.60;71.60
4097;DHT22;2062;50.694;7.246;2023-11-25T04:57:01;2.60;71.70
4097;DHT22;2062;50.694;7.246;2023-11-25T04:59:30;2.60;71.70
4097;DHT22;2062;50.694;7.246;2023-11-25T05:01:57;2.60;71.90
4097;DHT22;2062;50.694;7.246;2023-11-25T05:04:24;2.60;71.90
4097;DHT22;2062;50.694;7.246;2023-11-25T05:06:51;2.60;72.00
4097;DHT22;2062;50.694;7.246;2023-11-25T05:09:18;2.60;72.10
4097;DHT22;2062;50.694;7.246;2023-11-25T05:11:45;2.60;72.20
4097;DHT22;2062;50.694;7.246;2023-11-25T05:14:11;2.70;72.30
4097;DHT22;2062;50.694;7.246;2023-11-25T05:16:40;2.70;72.20
4097;DHT22;2062;50.694;7.246;2023-11-25T05:19:06;2.70;72.20
4097;DHT22;2062;50.694;7.246;2023-11-25T05:21:33;2.70;72.20
4097;DHT22;2062;50.694;7.246;2023-11-25T05:24:00;2.70;72.10
4097;DHT22;2062;50.694;7.246;2023-11-25T05:26:28;2.70;72.10
4097;DHT22;2062;50.694;7.246;2023-11-25T05:28:56;2.70;72.10
4097;DHT22;2062;50.694;7.246;2023-11-25T05:31:25;2.80;72.20
4097;DHT22;2062;50.694;7.246;2023-11-25T05:33:53;2.70;72.20
4097;DHT22;2062;50.694;7.246;2023-11-25T05:36:20;2.70;72.20
4097;DHT22;2062;50.694;7.246;2023-11-25T05:38:47;2.80;72.20
4097;DHT22;2062;50.694;7.246;2023-11-25T05:41:15;2.80;72.30
4097;DHT22;2062;50.694;7.246;2023-11-25T05:43:42;2.80;72.50
4097;DHT22;2062;50.694;7.246;2023-11-25T05:46:20;2.80;72.50
4097;DHT22;2062;50.694;7.246;2023-11-25T05:48:47;2.90;72.60
4097;DHT22;2062;50.694;7.246;2023-11-25T05:51:15;2.80;72.60
4097;DHT22;2062;50.694;7.246;2023-11-25T05:53:42;2.80;72.60
4097;DHT22;2062;50.694;7.246;2023-11-25T05:56:10;2.80;72.40
4097;DHT22;2062;50.694;7.246;2023-11-25T05:58:36;2.80;72.50
4097;DHT22;2062;50.694;7.246;2023-11-25T06:01:03;2.90;72.50
4097;DHT22;2062;50.694;7.246;2023-11-25T06:03:31;2.90;72.70
4097;DHT22;2062;50.694;7.246;2023-11-25T06:05:57;2.80;72.40
4097;DHT22;2062;50.694;7.246;2023-11-25T06:08:25;2.80;72.30
4097;DHT22;2062;50.694;7.246;2023-11-25T06:10:52;2.90;72.40
4097;DHT22;2062;50.694;7.246;2023-11-25T06:13:19;2.90;72.50
4097;DHT22;2062;50.694;7.246;2023-11-25T06:15:46;2.90;72.60
4097;DHT22;2062;50.694;7.246;2023-11-25T06:18:13;2.90;72.70
4097;DHT22;2062;50.694;7.246;2023-11-25T06:20:42;2.90;72.60
4097;DHT22;2062;50.694;7.246;2023-11-25T06:23:10;2.90;72.60
4097;DHT22;2062;50.694;7.246;2023-11-25T06:25:39;2.90;72.60
4097;DHT22;2062;50.694;7.246;2023-11-25T06:28:08;3.00;72.90
4097;DHT22;2062;50.694;7.246;2023-11-25T06:30:36;2.90;72.70
4097;DHT22;2062;50.694;7.246;2023-11-25T06:33:02;3.00;72.70
4097;DHT22;2062;50.694;7.246;2023-11-25T06:35:29;3.00;72.80
4097;DHT22;2062;50.694;7.246;2023-11-25T06:37:56;3.00;72.80
4097;DHT22;2062;50.694;7.246;2023-11-25T06:40:23;3.00;72.80
4097;DHT22;2062;50.694;7.246;2023-11-25T06:42:52;3.00;72.80
4097;DHT22;2062;50.694;7.246;2023-11-25T06:45:19;3.00;72.80
4097;DHT22;2062;50.694;7.246;2023-11-25T06:47:46;3.00;73.30
4097;DHT22;2062;50.694;7.246;2023-11-25T06:50:15;3.10;73.10
4097;DHT22;2062;50.694;7.246;2023-11-25T06:52:42;3.00;72.90
4097;DHT22;2062;50.694;7.246;2023-11-25T06:55:09;3.10;73.10
4097;DHT22;2062;50.694;7.246;2023-11-25T06:57:36;3.10;73.20
4097;DHT22;2062;50.694;7.246;2023-11-25T07:00:05;3.10;73.10
4097;DHT22;2062;50.694;7.246;2023-11-25T07:02:34;3.20;73.00
4097;DHT22;2062;50.694;7.246;2023-11-25T07:05:01;3.20;73.10
4097;DHT22;2062;50.694;7.246;2023-11-25T07:07:27;3.20;73.10
4097;DHT22;2062;50.694;7.246;2023-11-25T07:09:55;3.20;73.20
4097;DHT22;2062;50.694;7.246;2023-11-25T07:12:22;3.20;73.10
4097;DHT22;2062;50.694;7.246;2023-11-25T07:14:49;3.20;73.10
4097;DHT22;2062;50.694;7.246;2023-11-25T07:17:17;3.20;73.10
4097;DHT22;2062;50.694;7.246;2023-11-25T07:19:44;3.30;73.20
4097;DHT22;2062;50.694;7.246;2023-11-25T07:22:11;3.30;73.20
4097;DHT22;2062;50.694;7.246;2023-11-25T07:24:38;3.30;73.20
4097;DHT22;2062;50.694;7.246;2023-11-25T07:27:05;3.30;73.20
4097;DHT22;2062;50.694;7.246;2023-11-25T07:29:32;3.30;73.30
4097;DHT22;2062;50.694;7.246;2023-11-25T07:32:01;3.40;73.50
4097;DHT22;2062;50.694;7.246;2023-11-25T07:34:30;3.40;73.30
4097;DHT22;2062;50.694;7.246;2023-11-25T07:36:57;3.40;73.30
4097;DHT22;2062;50.694;7.246;2023-11-25T07:39:25;3.40;73.30
4097;DHT22;2062;50.694;7.246;2023-11-25T07:41:55;3.50;73.40
4097;DHT22;2062;50.694;7.246;2023-11-25T07:44:23;3.50;73.50
4097;DHT22;2062;50.694;7.246;2023-11-25T07:46:52;3.50;73.70
4097;DHT22;2062;50.694;7.246;2023-11-25T07:49:19;3.50;73.70
4097;DHT22;2062;50.694;7.246;2023-11-25T07:51:47;3.50;73.80
4097;DHT22;2062;50.694;7.246;2023-11-25T07:54:14;3.60;73.60
4097;DHT22;2062;50.694;7.246;2023-11-25T07:56:41;3.60;73.70
4097;DHT22;2062;50.694;7.246;2023-11-25T07:59:07;3.60;73.70
4097;DHT22;2062;50.694;7.246;2023-11-25T08:01:35;3.60;73.90
4097;DHT22;2062;50.694;7.246;2023-11-25T08:04:03;3.60;73.80
4097;DHT22;2062;50.694;7.246;2023-11-25T08:06:30;3.60;73.90
4097;DHT22;2062;50.694;7.246;2023-11-25T08:08:59;3.60;73.90
4097;DHT22;2062;50.694;7.246;2023-11-25T08:11:27;3.70;74.10
4097;DHT22;2062;50.694;7.246;2023-11-25T08:13:55;3.70;74.10
4097;DHT22;2062;50.694;7.246;2023-11-25T08:16:21;3.70;74.10
4097;DHT22;2062;50.694;7.246;2023-11-25T08:18:48;3.70;74.10
4097;DHT22;2062;50.694;7.246;2023-11-25T08:21:16;3.80;74.20
4097;DHT22;2062;50.694;7.246;2023-11-25T08:23:43;3.80;74.10
4097;DHT22;2062;50.694;7.246;2023-11-25T08:26:18;3.70;74.10
4097;DHT22;2062;50.694;7.246;2023-11-25T08:28:45;3.80;74.30
4097;DHT22;2062;50.694;7.246;2023-11-25T08:31:12;3.90;74.40
4097;DHT22;2062;50.694;7.246;2023-11-25T08:33:39;3.90;74.40
4097;DHT22;2062;50.694;7.246;2023-11-25T08:36:09;3.90;74.40
4097;DHT22;2062;50.694;7.246;2023-11-25T08:38:36;3.90;74.40
4097;DHT22;2062;50.694;7.246;2023-11-25T08:41:03;3.90;74.50
4097;DHT22;2062;50.694;7.246;2023-11-25T08:43:33;4.00;74.50
4097;DHT22;2062;50.694;7.246;2023-11-25T08:46:00;4.00;74.50
4097;DHT22;2062;50.694;7.246;2023-11-25T08:48:27;4.00;74.60
4097;DHT22;2062;50.694;7.246;2023-11-25T08:50:55;4.10;74.80
4097;DHT22;2062;50.694;7.246;2023-11-25T08:53:22;4.10;74.80
4097;DHT22;2062;50.694;7.246;2023-11-25T08:55:49;4.10;74.80
4097;DHT22;2062;50.694;7.246;2023-11-25T08:58:18;4.20;74.70
4097;DHT22;2062;50.694;7.246;2023-11-25T09:00:46;4.20;74.70
4097;DHT22;2062;50.694;7.246;2023-11-25T09:03:17;4.20;74.60
4097;DHT22;2062;50.694;7.246;2023-11-25T09:05:46;4.30;74.70
4097;DHT22;2062;50.694;7.246;2023-11-25T09:08:13;4.30;74.60
4097;DHT22;2062;50.694;7.246;2023-11-25T09:10:39;4.30;74.70
4097;DHT22;2062;50.694;7.246;2023-11-25T09:13:06;4.30;74.60
4097;DHT22;2062;50.694;7.246;2023-11-25T09:15:33;4.30;74.70
4097;DHT22;2062;50.694;7.246;2023-11-25T09:18:01;4.40;74.70
4097;DHT22;2062;50.694;7.246;2023-11-25T09:20:28;4.40;74.70
4097;DHT22;2062;50.694;7.246;2023-11-25T09:22:55;4.40;74.70
4097;DHT22;2062;50.694;7.246;2023-11-25T09:25:22;4.40;74.80
4097;DHT22;2062;50.694;7.246;2023-11-25T09:27:50;4.40;74.80
4097;DHT22;2062;50.694;7.246;2023-11-25T09:30:17;4.50;74.90
4097;DHT22;2062;50.694;7.246;2023-11-25T09:32:44;4.50;74.80
4097;DHT22;2062;50.694;7.246;2023-11-25T09:35:13;4.50;74.80
4097;DHT22;2062;50.694;7.246;2023-11-25T09:37:41;4.50;74.80
4097;DHT22;2062;50.694;7.246;2023-11-25T09:40:10;4.50;74.80
4097;DHT22;2062;50.694;7.246;2023-11-25T09:42:40;4.50;74.80
4097;DHT22;2062;50.694;7.246;2023-11-25T09:45:09;4.60;74.80
4097;DHT22;2062;50.694;7.246;2023-11-25T09:47:36;4.60;74.70
4097;DHT22;2062;50.694;7.246;2023-11-25T09:50:04;4.60;74.70
4097;DHT22;2062;50.694;7.246;2023-11-25T09:52:37;4.60;74.80
4097;DHT22;2062;50.694;7.246;2023-11-25T09:55:08;4.70;74.90
4097;DHT22;2062;50.694;7.246;2023-11-25T09:57:36;4.60;74.70
4097;DHT22;2062;50.694;7.246;2023-11-25T10:00:04;4.70;74.80
4097;DHT22;2062;50.694;7.246;2023-11-25T10:02:31;4.60;74.70
4097;DHT22;2062;50.694;7.246;2023-11-25T10:04:59;4.70;74.80
4097;DHT22;2062;50.694;7.246;2023-11-25T10:07:30;4.70;74.90
4097;DHT22;2062;50.694;7.246;2023-11-25T10:09:58;4.70;74.90
4097;DHT22;2062;50.694;7.246;2023-11-25T10:12:26;4.70;75.80
4097;DHT22;2062;50.694;7.246;2023-11-25T10:14:53;4.70;75.00
4097;DHT22;2062;50.694;7.246;2023-11-25T10:17:20;4.80;75.00
4097;DHT22;2062;50.694;7.246;2023-11-25T10:19:47;4.80;75.00
4097;DHT22;2062;50.694;7.246;2023-11-25T10:22:15;4.80;75.00
4097;DHT22;2062;50.694;7.246;2023-11-25T10:24:45;4.80;75.00
4097;DHT22;2062;50.694;7.246;2023-11-25T10:27:16;4.80;75.00
4097;DHT22;2062;50.694;7.246;2023-11-25T10:29:43;4.90;75.10
4097;DHT22;2062;50.694;7.246;2023-11-25T10:32:13;4.90;75.10
4097;DHT22;2062;50.694;7.246;2023-11-25T10:34:40;4.90;75.10
4097;DHT22;2062;50.694;7.246;2023-11-25T10:37:07;4.90;75.10
4097;DHT22;2062;50.694;7.246;2023-11-25T10:39:35;4.90;75.10
4097;DHT22;2062;50.694;7.246;2023-11-25T10:42:02;4.90;75.10
4097;DHT22;2062;50.694;7.246;2023-11-25T10:44:34;4.90;75.20
4097;DHT22;2062;50.694;7.246;2023-11-25T10:47:01;5.00;75.10
4097;DHT22;2062;50.694;7.246;2023-11-25T10:49:31;5.00;75.20
4097;DHT22;2062;50.694;7.246;2023-11-25T10:52:01;5.00;75.20
4097;DHT22;2062;50.694;7.246;2023-11-25T10:54:30;5.00;75.20
4097;DHT22;2062;50.694;7.246;2023-11-25T10:56:58;5.00;75.20
4097;DHT22;2062;50.694;7.246;2023-11-25T10:59:33;5.10;75.30
4097;DHT22;2062;50.694;7.246;2023-11-25T11:02:08;5.10;75.20
4097;DHT22;2062;50.694;7.246;2023-11-25T11:04:41;5.10;75.20
4097;DHT22;2062;50.694;7.246;2023-11-25T11:07:15;5.10;75.30
4097;DHT22;2062;50.694;7.246;2023-11-25T11:09:42;5.20;75.20
4097;DHT22;2062;50.694;7.246;2023-11-25T11:12:16;5.20;75.20
4097;DHT22;2062;50.694;7.246;2023-11-25T11:14:52;5.20;75.20
4097;DHT22;2062;50.694;7.246;2023-11-25T11:17:30;5.20;75.10
4097;DHT22;2062;50.694;7.246;2023-11-25T11:20:01;5.20;75.10
4097;DHT22;2062;50.694;7.246;2023-11-25T11:22:31;5.20;75.00
4097;DHT22;2062;50.694;7.246;2023-11-25T11:25:06;5.20;75.00
4097;DHT22;2062;50.694;7.246;2023-11-25T11:27:39;5.30;75.20
4097;DHT22;2062;50.694;7.246;2023-11-25T11:30:14;5.30;75.20
4097;DHT22;2062;50.694;7.246;2023-11-25T11:32:42;5.30;75.10
4097;DHT22;2062;50.694;7.246;2023-11-25T11:35:11;5.30;75.10
4097;DHT22;2062;50.694;7.246;2023-11-25T11:37:45;5.30;75.00
4097;DHT22;2062;50.694;7.246;2023-11-25T11:40:13;5.30;75.00
4097;DHT22;2062;50.694;7.246;2023-11-25T11:42:40;5.40;75.00
4097;DHT22;2062;50.694;7.246;2023-11-25T11:45:09;5.40;75.00
4097;DHT22;2062;50.694;7.246;2023-11-25T11:47:51;5.40;75.00
4097;DHT22;2062;50.694;7.246;2023-11-25T11:50:20;5.40;75.00
4097;DHT22;2062;50.694;7.246;2023-11-25T11:55:36;5.40;74.90
4097;DHT22;2062;50.694;7.246;2023-11-25T11:58:08;5.50;75.00
4097;DHT22;2062;50.694;7.246;2023-11-25T12:00:39;5.50;74.90
4097;DHT22;2062;50.694;7.246;2023-11-25T12:03:06;5.50;74.90
4097;DHT22;2062;50.694;7.246;2023-11-25T12:05:33;5.50;74.90
4097;DHT22;2062;50.694;7.246;2023-11-25T12:08:00;5.50;74.80
4097;DHT22;2062;50.694;7.246;2023-11-25T12:10:27;5.60;74.70
4097;DHT22;2062;50.694;7.246;2023-11-25T12:12:54;5.60;74.70
4097;DHT22;2062;50.694;7.246;2023-11-25T12:15:20;5.60;74.70
4097;DHT22;2062;50.694;7.246;2023-11-25T12:17:50;5.60;74.80
4097;DHT22;2062;50.694;7.246;2023-11-25T12:20:18;5.60;74.80
4097;DHT22;2062;50.694;7.246;2023-11-25T12:22:45;5.70;74.80
4097;DHT22;2062;50.694;7.246;2023-11-25T12:25:13;5.60;74.60
4097;DHT22;2062;50.694;7.246;2023-11-25T12:27:47;5.70;74.70
4097;DHT22;2062;50.694;7.246;2023-11-25T12:30:16;5.70;74.50
4097;DHT22;2062;50.694;7.246;2023-11-25T12:32:42;5.70;74.60
4097;DHT22;2062;50.694;7.246;2023-11-25T12:35:11;5.70;74.40
4097;DHT22;2062;50.694;7.246;2023-11-25T12:37:40;5.70;74.50
4097;DHT22;2062;50.694;7.246;2023-11-25T12:40:16;5.70;74.50
4097;DHT22;2062;50.694;7.246;2023-11-25T12:42:44;5.70;74.50
4097;DHT22;2062;50.694;7.246;2023-11-25T12:45:27;5.70;74.50
4097;DHT22;2062;50.694;7.246;2023-11-25T12:47:54;5.70;74.50
4097;DHT22;2062;50.694;7.246;2023-11-25T12:50:22;5.80;74.60
4097;DHT22;2062;50.694;7.246;2023-11-25T12:53:02;5.80;74.70
4097;DHT22;2062;50.694;7.246;2023-11-25T12:55:36;5.70;74.70
4097;DHT22;2062;50.694;7.246;2023-11-25T12:58:05;5.80;74.70
4097;DHT22;2062;50.694;7.246;2023-11-25T13:00:33;5.80;75.50
4097;DHT22;2062;50.694;7.246;2023-11-25T13:03:00;5.80;74.70
4097;DHT22;2062;50.694;7.246;2023-11-25T13:05:31;5.80;74.70
4097;DHT22;2062;50.694;7.246;2023-11-25T13:07:58;5.80;74.80
4097;DHT22;2062;50.694;7.246;2023-11-25T13:10:25;5.80;74.80
4097;DHT22;2062;50.694;7.246;2023-11-25T13:12:52;5.70;74.80
4097;DHT22;2062;50.694;7.246;2023-11-25T13:15:18;5.80;74.90
4097;DHT22;2062;50.694;7.246;2023-11-25T13:17:45;5.80;75.00
4097;DHT22;2062;50.694;7.246;2023-11-25T13:20:13;5.80;75.00
4097;DHT22;2062;50.694;7.246;2023-11-25T13:22:43;5.80;75.00
4097;DHT22;2062;50.694;7.246;2023-11-25T13:25:10;5.80;75.10
4097;DHT22;2062;50.694;7.246;2023-11-25T13:27:38;5.80;75.20
4097;DHT22;2062;50.694;7.246;2023-11-25T13:30:06;5.80;75.20
4097;DHT22;2062;50.694;7.246;2023-11-25T13:32:33;5.80;75.30
4097;DHT22;2062;50.694;7.246;2023-11-25T13:35:00;5.80;75.30
4097;DHT22;2062;50.694;7.246;2023-11-25T13:37:27;5.80;75.40
4097;DHT22;2062;50.694;7.246;2023-11-25T13:39:58;5.80;75.40
4097;DHT22;2062;50.694;7.246;2023-11-25T13:42:25;5.80;75.50
4097;DHT22;2062;50.694;7.246;2023-11-25T13:44:52;5.90;75.60
4097;DHT22;2062;50.694;7.246;2023-11-25T13:47:19;5.90;75.60
4097;DHT22;2062;50.694;7.246;2023-11-25T13:49:46;5.90;75.60
4097;DHT22;2062;50.694;7.246;2023-11-25T13:52:14;5.90;75.60
4097;DHT22;2062;50.694;7.246;2023-11-25T13:54:40;5.90;75.60
4097;DHT22;2062;50.694;7.246;2023-11-25T13:57:09;5.90;75.60
4097;DHT22;2062;50.694;7.246;2023-11-25T13:59:36;6.00;75.50
4097;DHT22;2062;50.694;7.246;2023-11-25T14:02:03;5.90;75.50
4097;DHT22;2062;50.694;7.246;2023-11-25T14:04:29;6.00;75.50
4097;DHT22;2062;50.694;7.246;2023-11-25T14:06:57;6.00;75.40
4097;DHT22;2062;50.694;7.246;2023-11-25T14:09:26;6.00;75.50
4097;DHT22;2062;50.694;7.246;2023-11-25T14:11:53;6.00;75.40
4097;DHT22;2062;50.694;7.246;2023-11-25T14:14:21;6.00;75.40
4097;DHT22;2062;50.694;7.246;2023-11-25T14:16:48;6.00;75.40
4097;DHT22;2062;50.694;7.246;2023-11-25T14:19:15;6.00;75.30
4097;DHT22;2062;50.694;7.246;2023-11-25T14:21:43;6.00;76.10
4097;DHT22;2062;50.694;7.246;2023-11-25T14:24:09;6.00;75.30
4097;DHT22;2062;50.694;7.246;2023-11-25T14:26:36;6.00;75.20
4097;DHT22;2062;50.694;7.246;2023-11-25T14:29:03;6.00;75.30
4097;DHT22;2062;50.694;7.246;2023-11-25T14:31:31;6.00;75.20
4097;DHT22;2062;50.694;7.246;2023-11-25T14:33:58;6.00;75.30
4097;DHT22;2062;50.694;7.246;2023-11-25T14:36:25;6.10;75.40
4097;DHT22;2062;50.694;7.246;2023-11-25T14:38:52;6.10;75.40
4097;DHT22;2062;50.694;7.246;2023-11-25T14:41:22;6.00;75.20
4097;DHT22;2062;50.694;7.246;2023-11-25T14:43:50;6.00;75.20
4097;DHT22;2062;50.694;7.246;2023-11-25T14:46:17;6.00;75.10
4097;DHT22;2062;50.694;7.246;2023-11-25T14:48:45;6.10;75.20
4097;DHT22;2062;50.694;7.246;2023-11-25T14:51:12;6.00;75.10
4097;DHT22;2062;50.694;7.246;2023-11-25T14:53:39;6.10;75.20
4097;DHT22;2062;50.694;7.246;2023-11-25T14:56:06;6.00;75.10
4097;DHT22;2062;50.694;7.246;2023-11-25T14:58:33;6.00;75.10
4097;DHT22;2062;50.694;7.246;2023-11-25T15:01:00;6.00;75.00
4097;DHT22;2062;50.694;7.246;2023-11-25T15:03:26;6.00;75.00
4097;DHT22;2062;50.694;7.246;2023-11-25T15:05:55;6.00;75.00
4097;DHT22;2062;50.694;7.246;2023-11-25T15:08:21;6.00;75.20
4097;DHT22;2062;50.694;7.246;2023-11-25T15:10:48;6.00;75.10
4097;DHT22;2062;50.694;7.246;2023-11-25T15:13:16;6.00;75.00
4097;DHT22;2062;50.694;7.246;2023-11-25T15:15:42;6.00;75.00
4097;DHT22;2062;50.694;7.246;2023-11-25T15:18:09;6.00;75.10
4097;DHT22;2062;50.694;7.246;2023-11-25T15:20:36;6.00;75.10
4097;DHT22;2062;50.694;7.246;2023-11-25T15:23:05;6.00;75.20
4097;DHT22;2062;50.694;7.246;2023-11-25T15:25:32;6.00;75.20
4097;DHT22;2062;50.694;7.246;2023-11-25T15:27:59;6.00;75.20
4097;DHT22;2062;50.694;7.246;2023-11-25T15:30:26;6.00;75.20
4097;DHT22;2062;50.694;7.246;2023-11-25T15:32:54;6.00;75.20
4097;DHT22;2062;50.694;7.246;2023-11-25T15:35:21;6.00;75.40
4097;DHT22;2062;50.694;7.246;2023-11-25T15:37:48;6.00;75.40
4097;DHT22;2062;50.694;7.246;2023-11-25T15:40:17;6.00;75.50
4097;DHT22;2062;50.694;7.246;2023-11-25T15:42:44;6.00;75.40
4097;DHT22;2062;50.694;7.246;2023-11-25T15:45:10;6.00;75.30
4097;DHT22;2062;50.694;7.246;2023-11-25T15:47:37;6.00;75.10
4097;DHT22;2062;50.694;7.246;2023-11-25T15:50:06;5.90;74.90
4097;DHT22;2062;50.694;7.246;2023-11-25T15:52:34;5.90;74.80
4097;DHT22;2062;50.694;7.246;2023-11-25T15:55:01;5.90;74.70
4097;DHT22;2062;50.694;7.246;2023-11-25T15:57:29;5.90;75.40
4097;DHT22;2062;50.694;7.246;2023-11-25T15:59:56;5.80;74.30
4097;DHT22;2062;50.694;7.246;2023-11-25T16:02:23;5.80;74.30
4097;DHT22;2062;50.694;7.246;2023-11-25T16:04:51;5.80;74.20
4097;DHT22;2062;50.694;7.246;2023-11-25T16:07:17;5.80;74.20
4097;DHT22;2062;50.694;7.246;2023-11-25T16:09:46;5.70;74.10
4097;DHT22;2062;50.694;7.246;2023-11-25T16:12:13;5.70;74.10
4097;DHT22;2062;50.694;7.246;2023-11-25T16:14:41;5.70;74.00
4097;DHT22;2062;50.694;7.246;2023-11-25T16:17:08;5.70;74.00
4097;DHT22;2062;50.694;7.246;2023-11-25T16:19:35;5.70;74.10
4097;DHT22;2062;50.694;7.246;2023-11-25T16:22:03;5.60;74.10
4097;DHT22;2062;50.694;7.246;2023-11-25T16:24:30;5.60;74.10